Time;durP1;ratioP1;P1;durP2;ratioP2;P2;SDS_P1;SDS_P2;PMS_P1;PMS_P2;Temp;Humidity;BMP_temperature;BMP_pressure;BME280_temperature;BME280_humidity;BME280_pressure;Samples;Min_cycle;Max_cycle;Signal;HPM_P1;HPM_P2
2021/11/11 00:00:17;;;;;;;18.88;10.48;;;4.60;93.50;;;;;;5006827;28;20033;-68
2021/11/11 00:02:43;;;;;;;18.15;9.00;;;4.50;93.40;;;;;;5013284;28;20049;-68
2021/11/11 00:05:09;;;;;;;15.65;9.25;;;4.40;93.50;;;;;;5016967;28;20026;-68
2021/11/11 00:07:36;;;;;;;17.05;9.63;;;4.40;93.60;;;;;;5002663;28;20460;-68
2021/11/11 00:10:03;;;;;;;20.83;10.15;;;4.30;93.80;;;;;;5005968;28;20100;-68
2021/11/11 00:12:32;;;;;;;22.02;10.38;;;4.30;93.80;;;;;;5002193;28;20750;-68
2021/11/11 00:14:59;;;;;;;15.70;9.02;;;4.30;93.30;;;;;;4999870;28;20030;-68
2021/11/11 00:17:25;;;;;;;15.65;9.68;;;4.20;93.00;;;;;;5004073;28;20051;-68
2021/11/11 00:19:51;;;;;;;17.67;9.80;;;4.10;93.10;;;;;;5006878;28;20039;-68
2021/11/11 00:22:21;;;;;;;19.00;10.45;;;4.00;93.60;;;;;;5001160;28;20123;-68
2021/11/11 00:24:47;;;;;;;16.48;8.75;;;4.10;93.80;;;;;;5001100;28;20121;-68
2021/11/11 00:27:12;;;;;;;21.90;10.55;;;4.00;94.10;;;;;;5006265;28;20034;-68
2021/11/11 00:29:39;;;;;;;18.50;10.35;;;4.10;94.50;;;;;;5005504;28;20734;-68
2021/11/11 00:32:05;;;;;;;18.05;9.93;;;4.00;94.60;;;;;;4998257;28;20517;-68
2021/11/11 00:34:32;;;;;;;18.75;10.13;;;4.00;94.40;;;;;;5009598;28;20030;-69
2021/11/11 00:36:59;;;;;;;19.17;11.00;;;4.00;94.60;;;;;;5006563;28;20149;-67
2021/11/11 00:39:25;;;;;;;21.13;11.88;;;4.00;94.50;;;;;;5001355;28;20099;-69
2021/11/11 00:41:51;;;;;;;20.08;11.48;;;4.00;94.30;;;;;;5003002;28;20038;-68
2021/11/11 00:44:18;;;;;;;21.05;11.45;;;3.90;94.20;;;;;;5000907;28;20025;-67
2021/11/11 00:46:43;;;;;;;17.00;10.45;;;3.90;94.00;;;;;;5008633;28;20053;-68
2021/11/11 00:49:09;;;;;;;18.35;9.82;;;3.80;93.70;;;;;;5012708;28;20038;-69
2021/11/11 00:51:37;;;;;;;21.02;10.27;;;3.80;93.80;;;;;;5015438;28;20496;-69
2021/11/11 00:54:06;;;;;;;17.73;9.38;;;3.70;93.90;;;;;;5010550;28;20207;-68
2021/11/11 00:56:33;;;;;;;16.25;9.20;;;3.70;93.90;;;;;;5005130;28;20041;-69
2021/11/11 00:59:00;;;;;;;15.35;9.38;;;3.60;93.90;;;;;;5002508;28;20056;-69
2021/11/11 01:01:29;;;;;;;15.00;9.35;;;3.60;94.10;;;;;;5002920;28;20781;-68
2021/11/11 01:03:55;;;;;;;17.05;9.50;;;3.60;94.50;;;;;;5008626;28;20202;-69
2021/11/11 01:06:21;;;;;;;17.83;9.90;;;3.70;95.00;;;;;;5015276;28;20041;-68
2021/11/11 01:08:49;;;;;;;16.70;9.32;;;3.70;95.20;;;;;;5019654;28;20466;-68
2021/11/11 01:11:15;;;;;;;22.58;10.20;;;3.80;95.00;;;;;;5017291;28;20378;-68
2021/11/11 01:13:41;;;;;;;16.55;9.23;;;3.80;95.40;;;;;;5010006;28;20022;-68
2021/11/11 01:16:07;;;;;;;18.13;9.98;;;3.80;95.40;;;;;;5005829;28;20460;-68
2021/11/11 01:18:32;;;;;;;16.02;9.23;;;3.90;95.20;;;;;;4999809;28;20048;-68
2021/11/11 01:20:58;;;;;;;16.15;8.95;;;3.80;94.90;;;;;;5005188;28;20847;-68
2021/11/11 01:23:24;;;;;;;17.73;9.25;;;3.80;94.80;;;;;;5009604;28;20038;-68
2021/11/11 01:25:50;;;;;;;16.02;8.57;;;3.80;94.80;;;;;;5017192;28;20045;-68
2021/11/11 01:28:16;;;;;;;15.13;8.90;;;3.80;95.10;;;;;;5016284;28;20509;-68
2021/11/11 01:30:44;;;;;;;18.55;10.00;;;3.80;95.10;;;;;;5007788;28;20040;-68
2021/11/11 01:33:39;;;;;;;20.33;9.50;;;3.80;95.30;;;;;;5011177;28;20924;-68
2021/11/11 01:36:05;;;;;;;16.90;10.23;;;3.90;95.60;;;;;;5015990;28;20080;-68
2021/11/11 01:38:42;;;;;;;15.93;8.20;;;3.90;95.50;;;;;;5013443;28;20033;-68
2021/11/11 01:41:08;;;;;;;13.75;8.93;;;3.90;95.30;;;;;;5011539;28;20033;-68
2021/11/11 01:43:35;;;;;;;14.02;8.30;;;3.90;94.90;;;;;;5013404;28;20033;-68
2021/11/11 01:46:03;;;;;;;13.50;8.85;;;3.80;94.90;;;;;;5016654;28;20036;-68
2021/11/11 01:48:29;;;;;;;15.93;9.13;;;3.80;94.70;;;;;;5012649;28;20882;-68
2021/11/11 01:51:00;;;;;;;16.17;9.50;;;3.80;94.00;;;;;;5006895;28;20040;-68
2021/11/11 01:53:31;;;;;;;11.57;7.70;;;3.70;93.70;;;;;;5001314;28;20129;-68
2021/11/11 01:55:57;;;;;;;14.75;8.43;;;3.60;94.10;;;;;;4984804;28;20068;-68
2021/11/11 01:58:25;;;;;;;15.15;8.27;;;3.60;94.50;;;;;;5006347;28;20030;-68
2021/11/11 02:00:55;;;;;;;14.80;7.97;;;3.60;94.40;;;;;;5005674;28;20060;-68
2021/11/11 02:03:32;;;;;;;14.75;8.50;;;3.60;94.30;;;;;;5000255;28;20034;-68
2021/11/11 02:06:02;;;;;;;18.52;9.52;;;3.50;94.70;;;;;;5001987;28;20030;-68
2021/11/11 02:08:51;;;;;;;17.50;9.20;;;3.60;95.20;;;;;;5007651;28;20112;-68
2021/11/11 02:11:22;;;;;;;16.10;9.13;;;3.70;95.60;;;;;;5012797;28;20698;-68
2021/11/11 02:13:50;;;;;;;15.50;8.00;;;3.70;95.10;;;;;;5016098;28;20144;-68
2021/11/11 02:16:19;;;;;;;15.18;8.48;;;3.70;94.70;;;;;;5010881;28;20038;-68
2021/11/11 02:18:45;;;;;;;14.63;8.77;;;3.60;94.20;;;;;;5005281;28;20128;-68
2021/11/11 02:21:12;;;;;;;16.30;8.63;;;3.50;94.00;;;;;;5000656;28;20034;-68
2021/11/11 02:23:54;;;;;;;14.88;8.43;;;3.50;93.90;;;;;;5000737;28;20077;-68
2021/11/11 02:26:43;;;;;;;20.98;9.15;;;3.40;94.20;;;;;;5008787;28;20817;-68
2021/11/11 02:29:18;;;;;;;17.00;9.43;;;3.40;94.90;;;;;;5010933;28;20034;-68
2021/11/11 02:31:44;;;;;;;17.38;9.60;;;3.50;95.00;;;;;;5016910;28;20047;-69
2021/11/11 02:34:12;;;;;;;19.50;9.18;;;3.50;95.00;;;;;;5011584;28;20128;-68
2021/11/11 02:36:58;;;;;;;17.27;9.20;;;3.50;94.70;;;;;;5010036;28;20045;-68
2021/11/11 02:39:33;;;;;;;17.13;9.10;;;3.40;94.40;;;;;;5014619;28;20188;-68
2021/11/11 02:41:59;;;;;;;19.00;9.13;;;3.40;93.90;;;;;;5013662;28;20060;-68
2021/11/11 02:44:29;;;;;;;19.60;8.43;;;3.20;93.20;;;;;;4994009;28;20033;-67
2021/11/11 02:46:57;;;;;;;16.23;8.55;;;3.10;93.40;;;;;;5004573;28;20109;-68
2021/11/11 02:49:32;;;;;;;13.70;7.55;;;3.10;93.80;;;;;;4999254;28;20033;-67
2021/11/11 02:51:59;;;;;;;18.13;8.43;;;3.10;94.40;;;;;;5009834;28;20030;-68
2021/11/11 02:54:25;;;;;;;19.63;9.80;;;3.10;94.30;;;;;;5006816;28;20503;-67
2021/11/11 02:56:51;;;;;;;17.92;9.13;;;3.00;94.00;;;;;;5013042;28;20037;-68
2021/11/11 02:59:17;;;;;;;16.23;9.25;;;3.00;94.10;;;;;;5016298;28;20029;-68
2021/11/11 03:01:42;;;;;;;20.23;9.50;;;3.00;94.50;;;;;;5012182;28;20248;-68
2021/11/11 03:04:09;;;;;;;18.33;9.07;;;3.00;94.70;;;;;;5009211;28;20911;-68
2021/11/11 03:06:38;;;;;;;16.45;9.48;;;3.00;94.90;;;;;;5013318;28;20071;-68
2021/11/11 03:09:04;;;;;;;14.90;8.60;;;3.00;95.10;;;;;;5015484;28;20034;-68
2021/11/11 03:11:31;;;;;;;18.05;9.15;;;3.10;95.20;;;;;;5009187;28;20039;-67
2021/11/11 03:14:03;;;;;;;17.25;9.38;;;3.10;95.10;;;;;;5010197;28;20109;-68
2021/11/11 03:16:29;;;;;;;16.10;9.32;;;3.10;94.50;;;;;;4998808;28;20135;-68
2021/11/11 03:18:56;;;;;;;18.38;8.75;;;3.00;94.30;;;;;;4996255;28;20490;-68
2021/11/11 03:21:21;;;;;;;16.33;8.75;;;3.00;94.30;;;;;;5009011;28;20466;-68
2021/11/11 03:23:48;;;;;;;16.98;8.95;;;2.90;94.20;;;;;;5002885;28;20144;-68
2021/11/11 03:26:16;;;;;;;15.15;8.45;;;2.90;94.30;;;;;;5014230;28;20084;-68
2021/11/11 03:28:43;;;;;;;17.27;8.98;;;2.90;94.70;;;;;;5012773;28;20033;-68
2021/11/11 03:31:12;;;;;;;15.38;8.85;;;2.90;95.00;;;;;;5008125;28;20033;-68
2021/11/11 03:33:37;;;;;;;16.65;9.75;;;3.00;95.30;;;;;;5009094;28;20029;-68
2021/11/11 03:36:03;;;;;;;16.70;8.60;;;3.00;95.20;;;;;;4998729;28;20847;-70
2021/11/11 03:38:30;;;;;;;19.80;8.90;;;3.00;94.70;;;;;;5012394;28;20068;-70
2021/11/11 03:40:57;;;;;;;18.08;9.40;;;3.00;94.20;;;;;;5008328;28;20029;-70
2021/11/11 03:43:31;;;;;;;22.65;9.35;;;2.90;94.00;;;;;;5002959;28;20061;-70
2021/11/11 03:46:05;;;;;;;12.82;8.20;;;2.80;93.90;;;;;;5014222;28;20061;-70
2021/11/11 03:48:31;;;;;;;16.15;8.13;;;2.70;93.70;;;;;;5007933;28;20033;-70
2021/11/11 03:50:59;;;;;;;14.25;7.45;;;2.60;94.00;;;;;;5015616;28;20037;-70
2021/11/11 03:53:25;;;;;;;15.82;8.30;;;2.60;94.50;;;;;;5015602;28;20030;-69
2021/11/11 03:55:52;;;;;;;18.10;8.70;;;2.70;94.40;;;;;;5012347;28;20520;-70
2021/11/11 03:58:21;;;;;;;19.10;8.57;;;2.60;94.00;;;;;;5007424;28;20041;-69
2021/11/11 04:00:47;;;;;;;16.88;8.50;;;2.60;94.00;;;;;;5001150;28;20030;-70
2021/11/11 04:03:14;;;;;;;16.77;9.63;;;2.50;94.10;;;;;;4998195;28;20033;-70
2021/11/11 04:05:42;;;;;;;14.00;8.00;;;2.50;94.10;;;;;;5003394;28;20612;-68
2021/11/11 04:08:09;;;;;;;14.07;8.05;;;2.50;94.10;;;;;;5007869;28;20037;-70
2021/11/11 04:10:36;;;;;;;17.00;9.50;;;2.50;94.30;;;;;;5012844;28;20101;-70
2021/11/11 04:13:10;;;;;;;19.33;9.55;;;2.50;94.60;;;;;;5011843;28;20042;-70
2021/11/11 04:15:35;;;;;;;15.57;8.77;;;2.60;94.90;;;;;;5004738;28;20041;-70
2021/11/11 04:18:02;;;;;;;17.67;9.30;;;2.60;95.10;;;;;;5011452;28;20039;-70
2021/11/11 04:20:28;;;;;;;18.88;9.77;;;2.60;95.30;;;;;;5014690;28;20033;-68
2021/11/11 04:22:54;;;;;;;17.50;9.20;;;2.60;94.90;;;;;;5004967;28;20470;-70
2021/11/11 04:25:33;;;;;;;24.30;10.45;;;2.60;94.70;;;;;;5005924;28;20042;-70
2021/11/11 04:28:08;;;;;;;23.30;11.05;;;2.60;94.70;;;;;;5011183;28;20791;-68
2021/11/11 04:30:35;;;;;;;20.33;10.90;;;2.60;94.70;;;;;;5006518;28;20065;-68
2021/11/11 04:33:07;;;;;;;18.95;9.93;;;2.60;94.70;;;;;;5003862;28;20121;-68
2021/11/11 04:35:33;;;;;;;17.73;10.18;;;2.60;94.90;;;;;;5013385;28;20037;-68
2021/11/11 04:38:09;;;;;;;22.75;11.05;;;2.60;95.20;;;;;;5016471;28;20041;-68
2021/11/11 05:04:32;;;;;;;20.45;9.23;;;2.70;94.80;;;;;;4999915;28;20048;-71
2021/11/11 05:06:58;;;;;;;19.33;9.13;;;2.60;95.30;;;;;;5002835;28;20068;-70
2021/11/11 05:09:25;;;;;;;19.92;9.65;;;2.60;95.60;;;;;;5006501;28;20057;-70
2021/11/11 05:11:52;;;;;;;19.42;9.90;;;2.70;95.80;;;;;;5008828;28;20037;-70
2021/11/11 05:14:18;;;;;;;19.20;9.90;;;2.80;95.70;;;;;;5013695;28;20409;-68
2021/11/11 05:16:43;;;;;;;15.95;8.73;;;2.80;95.60;;;;;;5018844;28;20041;-70
2021/11/11 05:19:09;;;;;;;17.40;9.55;;;2.80;95.50;;;;;;5012256;28;20049;-68
2021/11/11 05:21:35;;;;;;;20.83;9.40;;;2.80;95.40;;;;;;5019909;28;20037;-70
2021/11/11 05:24:01;;;;;;;17.27;9.15;;;2.80;95.10;;;;;;5008411;28;20140;-70
2021/11/11 05:26:29;;;;;;;20.77;9.85;;;2.80;95.30;;;;;;4997496;28;20129;-69
2021/11/11 05:28:58;;;;;;;17.92;9.32;;;2.80;95.00;;;;;;5017888;28;20065;-70
2021/11/11 05:31:24;;;;;;;16.38;9.27;;;2.70;95.00;;;;;;5016230;28;20030;-70
2021/11/11 05:33:50;;;;;;;23.17;9.60;;;2.70;95.00;;;;;;5016147;28;20033;-70
2021/11/11 05:36:19;;;;;;;20.00;10.27;;;2.80;94.70;;;;;;5028087;28;20328;-70
2021/11/11 05:38:45;;;;;;;21.08;9.90;;;2.70;94.20;;;;;;5025886;28;20030;-70
2021/11/11 05:41:11;;;;;;;16.55;8.00;;;2.60;94.20;;;;;;5028396;28;20043;-68
2021/11/11 05:43:38;;;;;;;17.52;8.63;;;2.60;94.20;;;;;;5026058;28;20040;-70
2021/11/11 05:46:05;;;;;;;17.00;8.93;;;2.50;94.30;;;;;;5030465;28;20405;-70
2021/11/11 05:48:33;;;;;;;23.55;11.35;;;2.50;94.50;;;;;;5018069;28;20026;-70
2021/11/11 05:50:59;;;;;;;22.40;11.18;;;2.50;94.90;;;;;;5030868;28;20140;-70
2021/11/11 05:53:24;;;;;;;19.58;10.15;;;2.50;95.30;;;;;;5024898;28;20504;-69
2021/11/11 05:55:51;;;;;;;15.52;8.77;;;2.60;95.60;;;;;;5015882;28;20651;-70
2021/11/11 05:58:18;;;;;;;22.30;10.43;;;2.60;95.70;;;;;;5017688;28;20040;-70
2021/11/11 06:00:44;;;;;;;18.17;9.23;;;2.70;95.80;;;;;;5014410;28;20033;-70
2021/11/11 06:03:16;;;;;;;17.95;9.93;;;2.70;95.60;;;;;;5026057;28;20113;-70
2021/11/11 06:05:43;;;;;;;18.00;9.68;;;2.80;95.40;;;;;;5007780;28;20033;-72
2021/11/11 06:08:15;;;;;;;21.88;10.85;;;2.80;95.00;;;;;;5015686;28;20022;-73
2021/11/11 06:10:41;;;;;;;19.75;10.90;;;2.80;94.40;;;;;;5023916;28;20539;-72
2021/11/11 06:13:06;;;;;;;21.88;10.38;;;2.70;94.00;;;;;;5001240;28;20034;-72
2021/11/11 06:15:32;;;;;;;21.92;10.85;;;2.60;93.50;;;;;;5008821;28;21132;-74
2021/11/11 06:17:59;;;;;;;15.80;9.68;;;2.60;93.10;;;;;;5040481;28;20033;-74
2021/11/11 06:20:32;;;;;;;20.67;11.15;;;2.50;93.20;;;;;;5019977;28;20065;-73
2021/11/11 06:23:01;;;;;;;18.75;10.35;;;2.50;93.40;;;;;;5020661;28;20038;-74
2021/11/11 06:25:27;;;;;;;23.45;10.88;;;2.40;93.60;;;;;;5028203;28;20445;-73
2021/11/11 06:27:58;;;;;;;21.65;11.23;;;2.40;93.90;;;;;;5016704;28;20041;-73
2021/11/11 06:30:25;;;;;;;16.77;10.13;;;2.40;94.20;;;;;;5014286;28;20034;-73
2021/11/11 06:32:50;;;;;;;17.63;9.55;;;2.50;94.40;;;;;;5015496;28;20032;-73
2021/11/11 06:35:20;;;;;;;17.92;9.82;;;2.50;94.60;;;;;;5022351;28;20136;-73
2021/11/11 06:37:45;;;;;;;19.35;10.07;;;2.60;94.70;;;;;;5019867;28;20128;-73
2021/11/11 06:40:12;;;;;;;22.65;10.40;;;2.60;94.80;;;;;;5025639;28;20040;-73
2021/11/11 06:42:37;;;;;;;22.70;10.82;;;2.70;94.90;;;;;;5019375;28;20033;-73
2021/11/11 06:45:10;;;;;;;20.55;11.00;;;2.80;95.00;;;;;;5028355;28;20060;-73
2021/11/11 06:47:36;;;;;;;21.30;9.38;;;2.80;95.10;;;;;;5009714;28;20137;-74
2021/11/11 06:50:03;;;;;;;21.50;11.32;;;2.90;95.10;;;;;;5011563;28;20041;-73
2021/11/11 06:52:29;;;;;;;19.15;10.60;;;3.00;95.10;;;;;;5031448;28;20033;-73
2021/11/11 06:54:54;;;;;;;20.65;11.20;;;3.10;95.10;;;;;;5013799;28;20141;-73
2021/11/11 06:57:20;;;;;;;26.73;11.75;;;3.20;95.00;;;;;;5020528;28;20163;-73
2021/11/11 06:59:51;;;;;;;21.35;10.70;;;3.30;94.70;;;;;;5010611;28;20561;-73
2021/11/11 07:02:17;;;;;;;18.67;10.20;;;3.30;94.30;;;;;;5003410;28;20065;-73
2021/11/11 07:04:45;;;;;;;20.38;10.10;;;3.40;94.20;;;;;;5016607;28;20133;-73
2021/11/11 07:07:11;;;;;;;22.17;11.35;;;3.50;94.10;;;;;;5026173;28;20026;-73
2021/11/11 07:09:37;;;;;;;25.83;12.27;;;3.60;93.70;;;;;;5006173;28;20091;-73
2021/11/11 07:12:03;;;;;;;24.23;12.25;;;3.60;92.90;;;;;;5001745;28;20099;-73
2021/11/11 07:14:29;;;;;;;18.77;10.38;;;3.60;92.60;;;;;;5021472;28;20151;-73
2021/11/11 07:16:54;;;;;;;23.08;11.05;;;3.70;92.00;;;;;;5004551;28;20515;-74
2021/11/11 07:19:20;;;;;;;22.45;11.02;;;3.60;91.70;;;;;;5007118;28;20045;-73
2021/11/11 07:21:46;;;;;;;22.52;11.10;;;3.70;92.20;;;;;;5012086;28;20836;-73
2021/11/11 07:24:12;;;;;;;28.10;11.98;;;3.70;92.40;;;;;;5010876;28;20065;-73
2021/11/11 07:26:38;;;;;;;23.15;11.45;;;3.80;92.30;;;;;;5026418;28;20125;-73
2021/11/11 07:29:04;;;;;;;24.00;10.88;;;4.00;91.60;;;;;;5008846;28;20087;-72
2021/11/11 07:31:29;;;;;;;24.50;11.27;;;4.10;91.80;;;;;;5015122;28;20413;-73
2021/11/11 07:33:55;;;;;;;24.80;12.02;;;4.10;92.30;;;;;;5015905;28;20025;-74
2021/11/11 07:36:21;;;;;;;21.00;10.98;;;4.30;92.10;;;;;;5014922;28;20045;-73
2021/11/11 07:38:47;;;;;;;23.55;11.02;;;4.40;92.10;;;;;;4999661;28;20030;-73
2021/11/11 07:41:13;;;;;;;19.50;10.27;;;4.60;92.10;;;;;;5018479;28;20652;-73
2021/11/11 07:43:38;;;;;;;22.13;11.38;;;4.70;92.10;;;;;;5020742;28;20494;-73
2021/11/11 07:46:06;;;;;;;18.40;9.20;;;4.90;92.10;;;;;;5018016;28;20037;-73
2021/11/11 07:48:32;;;;;;;21.42;10.07;;;5.00;92.00;;;;;;5028926;28;20033;-73
2021/11/11 07:51:03;;;;;;;19.85;9.80;;;5.20;91.80;;;;;;5019160;28;20134;-73
2021/11/11 07:53:29;;;;;;;27.52;11.48;;;5.30;91.70;;;;;;5013945;28;20061;-73
2021/11/11 07:55:56;;;;;;;26.17;12.50;;;5.40;91.40;;;;;;5016672;28;20974;-74
2021/11/11 07:58:22;;;;;;;25.02;12.10;;;5.40;91.20;;;;;;5008655;28;20183;-73
2021/11/11 08:00:48;;;;;;;25.00;10.63;;;5.40;90.70;;;;;;5017405;28;20596;-73
2021/11/11 08:03:15;;;;;;;45.35;18.58;;;5.50;90.70;;;;;;5008387;28;20030;-73
2021/11/11 08:05:41;;;;;;;25.83;15.25;;;5.60;90.00;;;;;;5005532;28;20026;-74
2021/11/11 08:08:09;;;;;;;20.27;10.00;;;5.60;90.00;;;;;;5007775;28;20572;-74
2021/11/11 08:10:36;;;;;;;20.55;11.07;;;5.70;90.10;;;;;;5021527;28;20044;-73
2021/11/11 08:13:02;;;;;;;24.25;12.35;;;5.90;90.20;;;;;;5022336;28;20528;-73
2021/11/11 08:15:28;;;;;;;33.92;12.00;;;6.00;89.90;;;;;;5024533;28;20074;-72
2021/11/11 08:17:54;;;;;;;30.02;12.90;;;6.10;89.90;;;;;;4997228;28;20033;-72
2021/11/11 08:20:20;;;;;;;38.35;13.65;;;6.10;89.30;;;;;;5027631;28;20412;-71
2021/11/11 08:22:48;;;;;;;25.20;10.85;;;6.20;89.30;;;;;;5031397;28;20763;-74
2021/11/11 08:25:16;;;;;;;22.70;9.95;;;6.30;88.80;;;;;;5021785;28;20104;-70
2021/11/11 08:27:43;;;;;;;26.98;13.63;;;6.50;89.00;;;;;;5027014;28;20114;-73
2021/11/11 08:30:12;;;;;;;27.65;13.52;;;6.60;88.80;;;;;;5014731;28;20088;-74
2021/11/11 08:32:40;;;;;;;25.98;12.98;;;6.70;88.60;;;;;;5010167;28;20465;-73
2021/11/11 08:35:06;;;;;;;18.40;9.93;;;6.80;87.90;;;;;;5032400;28;20163;-73
2021/11/11 08:37:32;;;;;;;15.50;8.43;;;6.90;87.40;;;;;;5029646;28;20029;-73
2021/11/11 08:39:58;;;;;;;17.58;9.45;;;7.00;87.20;;;;;;5012296;28;20037;-72
2021/11/11 08:42:24;;;;;;;23.52;11.80;;;7.10;87.70;;;;;;5031603;28;20037;-73
2021/11/11 08:44:50;;;;;;;24.27;12.07;;;7.30;87.70;;;;;;5012844;28;20103;-73
2021/11/11 08:47:19;;;;;;;30.05;12.70;;;7.40;87.60;;;;;;5012433;28;20045;-73
2021/11/11 08:49:51;;;;;;;26.73;13.05;;;7.60;86.70;;;;;;5018539;28;20033;-74
2021/11/11 08:52:17;;;;;;;23.83;12.75;;;7.60;85.20;;;;;;5019929;28;20140;-73
2021/11/11 08:54:43;;;;;;;26.55;11.20;;;7.70;86.00;;;;;;5026640;28;20124;-73
2021/11/11 08:57:10;;;;;;;21.17;10.38;;;7.70;86.50;;;;;;5015787;28;20138;-73
2021/11/11 08:59:36;;;;;;;18.40;9.32;;;7.70;86.00;;;;;;5016262;28;20077;-73
2021/11/11 09:02:02;;;;;;;19.63;10.68;;;7.40;85.10;;;;;;5027967;28;20149;-75
2021/11/11 09:04:27;;;;;;;26.25;11.38;;;7.40;86.00;;;;;;5025467;28;20037;-74
2021/11/11 09:06:54;;;;;;;21.73;10.93;;;7.60;86.20;;;;;;5006839;28;20037;-75
2021/11/11 09:09:21;;;;;;;18.75;10.40;;;7.80;85.20;;;;;;5024253;28;20492;-74
2021/11/11 09:11:48;;;;;;;23.55;12.15;;;8.00;84.90;;;;;;5033170;28;20040;-76
2021/11/11 09:14:15;;;;;;;24.83;11.88;;;8.10;83.60;;;;;;5025585;28;20031;-74
2021/11/11 09:16:42;;;;;;;26.48;11.93;;;8.20;83.10;;;;;;5027574;28;20047;-74
2021/11/11 09:19:08;;;;;;;21.83;11.00;;;8.20;83.70;;;;;;5022939;28;20108;-74
2021/11/11 09:21:35;;;;;;;24.13;12.68;;;8.30;84.00;;;;;;5019972;28;20039;-74
2021/11/11 09:24:01;;;;;;;20.65;11.85;;;8.50;83.00;;;;;;5016967;28;20044;-73
2021/11/11 09:26:27;;;;;;;22.63;13.57;;;8.70;83.20;;;;;;5012463;28;20033;-73
2021/11/11 09:28:54;;;;;;;24.75;12.93;;;8.90;83.10;;;;;;5023177;28;20036;-74
2021/11/11 09:31:21;;;;;;;22.27;12.10;;;9.40;80.80;;;;;;5013979;28;20037;-74
2021/11/11 09:33:47;;;;;;;21.48;12.77;;;9.50;79.40;;;;;;5022777;28;20552;-74
2021/11/11 09:36:15;;;;;;;26.00;12.80;;;9.50;79.30;;;;;;5014616;28;20651;-74
2021/11/11 09:38:41;;;;;;;23.48;13.52;;;9.50;77.90;;;;;;5018579;28;20173;-75
2021/11/11 09:41:10;;;;;;;22.17;11.50;;;9.30;78.80;;;;;;5016226;28;20037;-73
2021/11/11 09:43:37;;;;;;;25.58;12.75;;;9.10;80.00;;;;;;5025404;28;20033;-75
2021/11/11 09:46:04;;;;;;;25.08;13.20;;;9.10;80.90;;;;;;5016181;28;20029;-70
2021/11/11 09:48:32;;;;;;;25.75;13.77;;;9.10;81.10;;;;;;5010431;28;20043;-71
2021/11/11 09:50:58;;;;;;;26.35;14.95;;;9.30;80.80;;;;;;5012796;28;20159;-71
2021/11/11 09:53:24;;;;;;;22.95;14.50;;;9.40;80.60;;;;;;5006388;28;20735;-70
2021/11/11 09:58:45;;;;;;;26.65;13.73;;;9.50;80.10;;;;;;5028066;28;20048;-68
2021/11/11 10:01:21;;;;;;;25.53;13.70;;;9.50;80.30;;;;;;5018026;28;20829;-69
2021/11/11 10:03:48;;;;;;;25.45;14.80;;;9.60;79.80;;;;;;5013495;28;20041;-69
2021/11/11 10:06:20;;;;;;;24.30;14.45;;;9.60;80.20;;;;;;5025987;28;20079;-69
2021/11/11 10:08:52;;;;;;;25.90;14.07;;;9.60;80.50;;;;;;5014735;28;20029;-73
2021/11/11 10:11:31;;;;;;;30.67;15.38;;;9.60;80.50;;;;;;5014881;28;20655;-71
2021/11/11 10:14:01;;;;;;;27.60;15.00;;;9.30;80.00;;;;;;5020937;28;20033;-70
2021/11/11 10:16:28;;;;;;;24.45;13.18;;;9.30;81.40;;;;;;5024522;28;20037;-70
2021/11/11 10:19:00;;;;;;;24.48;12.77;;;9.40;81.70;;;;;;5029866;28;20061;-70
2021/11/11 10:21:38;;;;;;;24.23;13.15;;;9.40;81.90;;;;;;5019937;28;20037;-69
2021/11/11 10:24:17;;;;;;;28.38;13.93;;;9.40;81.90;;;;;;5022434;28;20028;-70
2021/11/11 10:27:18;;;;;;;26.95;12.40;;;9.50;81.00;;;;;;5012202;28;20044;-71
2021/11/11 10:30:05;;;;;;;25.30;14.48;;;9.50;81.20;;;;;;5015670;28;20039;-71
2021/11/11 10:32:47;;;;;;;25.33;13.20;;;9.50;80.80;;;;;;5017647;28;20386;-71
2021/11/11 10:35:23;;;;;;;26.13;12.65;;;9.50;81.10;;;;;;5017200;28;20042;-71
2021/11/11 10:38:13;;;;;;;25.23;13.60;;;9.50;81.10;;;;;;5015228;28;20044;-70
2021/11/11 10:40:45;;;;;;;32.58;15.93;;;9.50;81.50;;;;;;5023951;28;20037;-71
2021/11/11 10:43:15;;;;;;;34.70;19.25;;;9.30;82.30;;;;;;5019251;28;20030;-70
2021/11/11 10:45:47;;;;;;;31.05;14.98;;;9.30;82.40;;;;;;5002433;28;20056;-71
2021/11/11 10:48:15;;;;;;;38.55;18.80;;;9.40;82.60;;;;;;5020015;28;20033;-70
2021/11/11 10:50:47;;;;;;;27.05;13.82;;;9.60;82.70;;;;;;5011940;28;20099;-70
2021/11/11 10:53:19;;;;;;;35.13;17.98;;;9.80;82.60;;;;;;5013722;28;20041;-71
2021/11/11 10:55:50;;;;;;;23.27;11.85;;;10.00;81.70;;;;;;5011007;28;20036;-72
2021/11/11 10:58:22;;;;;;;23.33;11.95;;;10.20;80.50;;;;;;5010985;28;20486;-73
2021/11/11 11:01:01;;;;;;;26.48;12.70;;;10.40;79.50;;;;;;5016795;28;20040;-70
2021/11/11 11:03:39;;;;;;;27.08;14.20;;;10.60;79.40;;;;;;5011713;28;20029;-69
2021/11/11 11:06:08;;;;;;;23.88;12.68;;;10.80;78.60;;;;;;5022686;28;20045;-69
2021/11/11 11:08:40;;;;;;;26.70;12.45;;;10.80;77.40;;;;;;5023743;28;20029;-70
2021/11/11 11:11:24;;;;;;;23.67;10.80;;;10.40;78.60;;;;;;5002295;28;20038;-74
2021/11/11 11:13:53;;;;;;;22.73;12.15;;;10.60;80.20;;;;;;5014462;28;20033;-76
2021/11/11 11:16:22;;;;;;;25.90;13.32;;;10.80;78.70;;;;;;5002104;28;20915;-72
2021/11/11 11:18:55;;;;;;;23.85;12.25;;;10.90;78.10;;;;;;5015361;28;20033;-73
2021/11/11 11:21:23;;;;;;;20.83;11.38;;;11.10;79.00;;;;;;5029040;28;20280;-73
2021/11/11 11:23:51;;;;;;;24.27;12.52;;;11.50;78.40;;;;;;5018182;28;20037;-71
2021/11/11 11:26:21;;;;;;;22.88;13.05;;;11.30;75.90;;;;;;5023145;28;20477;-73
2021/11/11 11:29:01;;;;;;;25.92;14.18;;;11.10;77.70;;;;;;5026268;28;20029;-70
2021/11/11 11:31:30;;;;;;;21.45;12.90;;;10.60;79.80;;;;;;5011913;28;20029;-69
2021/11/11 11:33:58;;;;;;;27.60;13.65;;;10.30;81.90;;;;;;5007179;28;20133;-69
2021/11/11 11:36:36;;;;;;;23.02;12.50;;;10.10;82.70;;;;;;5016680;28;20116;-74
2021/11/11 11:39:03;;;;;;;26.65;13.30;;;10.00;84.10;;;;;;5020001;28;20675;-70
2021/11/11 11:41:36;;;;;;;28.27;15.05;;;10.10;84.30;;;;;;5017586;28;20041;-74
2021/11/11 11:44:32;;;;;;;23.08;13.05;;;10.10;84.00;;;;;;5019513;28;20038;-73
2021/11/11 11:47:11;;;;;;;26.38;14.32;;;10.10;84.30;;;;;;5015129;28;20044;-72
2021/11/11 11:49:38;;;;;;;26.83;13.80;;;10.10;84.30;;;;;;5011839;28;20037;-71
2021/11/11 11:52:07;;;;;;;26.35;13.68;;;10.00;84.40;;;;;;5018411;28;20047;-71
2021/11/11 11:54:43;;;;;;;28.38;16.20;;;10.00;84.70;;;;;;5019066;28;20116;-69
2021/11/11 11:57:17;;;;;;;26.90;14.55;;;10.10;84.80;;;;;;5015894;28;20029;-69
2021/11/11 11:59:48;;;;;;;23.27;12.30;;;10.00;84.40;;;;;;4999618;28;20042;-70
2021/11/11 12:02:35;;;;;;;32.53;14.98;;;10.00;85.00;;;;;;5015442;28;20040;-69
2021/11/11 12:38:50;;;;;;;23.33;13.00;;;11.50;79.40;;;;;;5017481;28;20095;-69
2021/11/11 12:41:18;;;;;;;20.80;11.95;;;11.60;78.80;;;;;;4986366;28;20890;-69
2021/11/11 12:44:04;;;;;;;19.00;10.98;;;11.50;79.10;;;;;;5009158;28;20049;-71
2021/11/11 12:46:45;;;;;;;22.38;11.15;;;11.50;79.20;;;;;;5002846;28;20038;-71
2021/11/11 12:49:34;;;;;;;19.33;11.20;;;11.70;79.20;;;;;;5016922;28;20034;-70
2021/11/11 12:52:13;;;;;;;19.98;11.63;;;11.60;79.20;;;;;;5018952;28;20108;-69
2021/11/11 12:54:44;;;;;;;18.42;10.48;;;11.60;79.20;;;;;;5024231;28;20087;-69
2021/11/11 12:57:11;;;;;;;18.90;11.00;;;11.60;79.80;;;;;;5013482;28;20313;-72
2021/11/11 12:59:37;;;;;;;20.60;11.48;;;11.40;80.00;;;;;;5017706;28;20065;-72
2021/11/11 13:02:06;;;;;;;26.45;11.27;;;11.60;79.70;;;;;;5015649;28;20041;-73
2021/11/11 13:04:51;;;;;;;16.92;11.10;;;11.70;79.60;;;;;;5024472;28;20044;-79
2021/11/11 13:07:27;;;;;;;15.32;9.88;;;12.00;79.60;;;;;;5017497;28;20038;-71
2021/11/11 13:10:05;;;;;;;16.60;9.88;;;12.10;78.50;;;;;;5009368;28;20041;-68
2021/11/11 13:12:31;;;;;;;19.02;11.55;;;12.20;77.50;;;;;;5008347;28;20617;-72
2021/11/11 13:15:17;;;;;;;19.13;11.35;;;12.20;77.80;;;;;;5014677;28;20060;-73
2021/11/11 13:17:48;;;;;;;17.73;10.68;;;12.20;77.60;;;;;;5015588;28;20563;-70
2021/11/11 13:20:17;;;;;;;20.95;11.25;;;12.20;77.80;;;;;;5000453;28;20045;-73
2021/11/11 13:22:49;;;;;;;19.75;10.65;;;12.20;77.50;;;;;;5007376;28;20038;-71
2021/11/11 13:28:29;;;;;;;18.73;10.93;;;12.10;78.50;;;;;;5021478;28;20124;-72
2021/11/11 13:54:32;;;;;;;24.75;12.55;;;11.40;81.00;;;;;;5018071;28;20040;-70
2021/11/11 15:57:06;;;;;;;20.55;10.23;;;9.70;91.40;;;;;;5014391;28;20500;-70
2021/11/11 16:20:49;;;;;;;37.33;14.88;;;9.80;91.40;;;;;;5007644;28;20048;-68
2021/11/11 16:23:45;;;;;;;25.88;12.38;;;9.80;91.40;;;;;;5006438;28;20068;-69
2021/11/11 16:26:16;;;;;;;24.42;10.90;;;9.80;91.50;;;;;;5011584;28;20038;-70
2021/11/11 16:28:46;;;;;;;20.15;10.93;;;9.80;91.70;;;;;;5007308;28;20029;-70
2021/11/11 16:31:14;;;;;;;21.45;11.48;;;9.80;91.70;;;;;;5016240;28;20037;-65
2021/11/11 16:33:42;;;;;;;17.98;10.13;;;9.70;91.70;;;;;;5019195;28;20033;-69
2021/11/11 16:36:09;;;;;;;22.48;10.98;;;9.80;91.80;;;;;;5013797;28;20036;-68